createdAt,value
2019-03-03T00:01:08.298Z,49.37
2019-03-03T00:03:43.354Z,52.30
2019-03-03T00:06:18.785Z,43.80
2019-03-03T00:08:53.839Z,55.07
2019-03-03T00:11:28.853Z,46.37
2019-03-03T00:14:04.195Z,42.87
2019-03-03T00:16:39.237Z,55.40
2019-03-03T00:19:14.320Z,42.07
2019-03-03T00:21:51.042Z,72.53
2019-03-03T00:24:28.962Z,38.57
2019-03-03T00:27:04.125Z,66.70
2019-03-03T00:29:39.482Z,46.43
2019-03-03T00:32:14.519Z,40.07
2019-03-03T00:34:49.616Z,41.90
2019-03-03T00:37:26.367Z,49.63
2019-03-03T00:40:03.058Z,59.17
2019-03-03T00:42:40.126Z,55.37
2019-03-03T00:45:19.922Z,50.97
2019-03-03T00:48:00.753Z,50.40
2019-03-03T00:50:40.538Z,55.40
2019-03-03T00:53:17.303Z,47.57
2019-03-03T00:56:00.580Z,57.30
2019-03-03T00:58:43.731Z,51.97
2019-03-03T01:01:23.939Z,52.43
2019-03-03T01:04:13.299Z,46.57
2019-03-03T01:06:49.975Z,54.93
2019-03-03T01:09:30.001Z,60.07
2019-03-03T01:12:23.329Z,48.13
2019-03-03T01:15:09.428Z,49.27
2019-03-03T01:17:49.399Z,46.63
2019-03-03T01:20:39.881Z,51.73
2019-03-03T01:23:36.325Z,50.10
2019-03-03T01:26:12.131Z,56.90
2019-03-03T01:28:47.151Z,62.03
2019-03-03T01:31:22.213Z,49.87
2019-03-03T01:33:58.881Z,54.33
2019-03-03T01:36:34.279Z,53.40
2019-03-03T01:39:09.668Z,53.50
2019-03-03T01:41:45.054Z,58.07
2019-03-03T01:44:20.608Z,68.30
2019-03-03T01:46:55.942Z,56.77
2019-03-03T01:49:31.237Z,60.67
2019-03-03T01:52:06.336Z,58.10
2019-03-03T01:54:42.316Z,60.60
2019-03-03T01:57:17.841Z,55.90
2019-03-03T01:59:52.862Z,60.63
2019-03-03T02:02:28.211Z,58.87
2019-03-03T02:05:03.299Z,62.37
2019-03-03T02:07:38.529Z,57.13
2019-03-03T02:10:15.498Z,64.10
2019-03-03T02:12:50.588Z,65.63
2019-03-03T02:15:25.678Z,54.80
2019-03-03T02:18:00.814Z,73.87
2019-03-03T02:20:35.935Z,58.67
2019-03-03T02:23:10.990Z,83.57
2019-03-03T02:25:46.095Z,74.17
2019-03-03T02:28:21.534Z,87.17
2019-03-03T02:30:56.611Z,72.87
2019-03-03T02:33:31.705Z,75.13
2019-03-03T02:36:06.778Z,70.33
2019-03-03T02:38:42.392Z,64.03
2019-03-03T02:41:18.242Z,57.83
2019-03-03T02:43:53.290Z,55.73
2019-03-03T02:46:28.317Z,65.43
2019-03-03T02:49:03.435Z,79.33
2019-03-03T02:51:38.788Z,51.47
2019-03-03T02:54:14.019Z,60.90
2019-03-03T02:56:50.024Z,62.47
2019-03-03T02:59:25.336Z,65.50
2019-03-03T03:02:01.197Z,62.00
2019-03-03T03:04:36.671Z,58.03
2019-03-03T03:07:13.445Z,72.43
2019-03-03T03:09:56.190Z,89.13
2019-03-03T03:12:50.422Z,71.53
2019-03-03T03:15:27.096Z,70.77
2019-03-03T03:18:04.671Z,58.57
2019-03-03T03:20:45.144Z,61.00
2019-03-03T03:23:21.829Z,66.30
2019-03-03T03:25:58.491Z,65.47
2019-03-03T03:28:48.404Z,72.93
2019-03-03T03:31:25.328Z,57.23
2019-03-03T03:34:17.852Z,78.83
2019-03-03T03:37:01.129Z,66.17
2019-03-03T03:39:56.282Z,63.10
2019-03-03T03:42:39.519Z,65.03
2019-03-03T03:45:16.202Z,71.43
2019-03-03T03:47:58.798Z,63.57
2019-03-03T03:50:53.338Z,52.73
2019-03-03T03:53:47.666Z,63.00
2019-03-03T03:56:33.509Z,60.33
2019-03-03T03:59:13.732Z,66.87
2019-03-03T04:01:50.854Z,66.10
2019-03-03T04:04:30.525Z,72.50
2019-03-03T04:07:07.212Z,61.93
2019-03-03T04:09:44.365Z,64.93
2019-03-03T04:12:21.146Z,70.13
2019-03-03T04:14:58.171Z,54.37
2019-03-03T04:17:54.285Z,54.60
2019-03-03T04:21:17.921Z,65.90
2019-03-03T04:24:01.606Z,69.50
2019-03-03T04:26:47.806Z,59.53
2019-03-03T04:29:24.500Z,65.03
2019-03-03T04:32:07.637Z,60.27
2019-03-03T04:34:44.649Z,80.80
2019-03-03T04:37:34.376Z,52.83
2019-03-03T04:40:18.003Z,56.90
2019-03-03T04:43:12.566Z,56.20
2019-03-03T04:45:49.248Z,53.33
2019-03-03T04:48:29.053Z,51.47
2019-03-03T04:54:44.157Z,51.03
2019-03-03T04:57:24.325Z,57.97
2019-03-03T05:00:07.357Z,69.37
2019-03-03T05:03:01.571Z,58.13
2019-03-03T05:05:44.962Z,52.83
2019-03-03T05:08:24.473Z,50.27
2019-03-03T05:11:18.713Z,47.23
2019-03-03T05:13:55.477Z,45.83
2019-03-03T05:16:35.324Z,46.77
2019-03-03T05:19:10.647Z,46.57
2019-03-03T05:21:45.703Z,44.33
2019-03-03T05:24:21.132Z,40.30
2019-03-03T05:26:56.274Z,41.77
2019-03-03T05:29:31.373Z,52.17
2019-03-03T05:32:06.752Z,48.33
2019-03-03T05:34:42.089Z,38.90
2019-03-03T05:37:17.428Z,48.47
2019-03-03T05:39:52.773Z,41.20
2019-03-03T05:42:28.152Z,42.00
2019-03-03T05:45:04.829Z,36.17
2019-03-03T05:47:40.130Z,42.97
2019-03-03T05:50:15.181Z,36.30
2019-03-03T05:52:50.218Z,37.53
2019-03-03T05:55:25.262Z,39.60
2019-03-03T05:58:00.701Z,36.17
2019-03-03T06:00:35.794Z,53.53
2019-03-03T06:03:10.909Z,42.20
2019-03-03T06:05:47.456Z,61.60
2019-03-03T06:08:22.739Z,40.20
2019-03-03T06:10:57.847Z,37.77
2019-03-03T06:13:33.246Z,33.73
2019-03-03T06:16:08.267Z,35.37
2019-03-03T06:18:43.329Z,33.37
2019-03-03T06:21:19.450Z,38.70
2019-03-03T06:23:54.965Z,30.63
2019-03-03T06:26:29.987Z,36.50
2019-03-03T06:29:05.154Z,30.10
2019-03-03T06:31:40.566Z,29.43
2019-03-03T06:34:15.578Z,30.27
2019-03-03T06:36:51.023Z,23.43
2019-03-03T06:39:29.046Z,28.93
2019-03-03T06:42:04.378Z,22.50
2019-03-03T06:44:39.534Z,22.17
2019-03-03T06:47:14.960Z,24.57
2019-03-03T06:49:50.310Z,24.17
2019-03-03T06:52:25.848Z,23.63
2019-03-03T06:55:03.104Z,36.83
2019-03-03T06:57:38.245Z,27.60
2019-03-03T07:00:16.343Z,18.90
2019-03-03T07:02:51.420Z,27.47
2019-03-03T07:05:26.597Z,18.57
2019-03-03T07:08:01.730Z,19.27
2019-03-03T07:10:36.782Z,24.80
2019-03-03T07:13:12.169Z,27.13
2019-03-03T07:15:48.462Z,23.73
2019-03-03T07:18:23.509Z,30.07
2019-03-03T07:20:58.988Z,22.67
2019-03-03T07:23:34.030Z,18.40
2019-03-03T07:26:09.859Z,19.73
2019-03-03T07:28:44.922Z,18.77
2019-03-03T07:31:20.874Z,20.70
2019-03-03T07:33:56.826Z,22.30
2019-03-03T07:36:31.890Z,20.40
2019-03-03T07:39:16.041Z,24.33
2019-03-03T07:41:51.094Z,34.13
2019-03-03T07:44:26.441Z,23.73
2019-03-03T07:47:01.575Z,29.67
2019-03-03T07:49:36.904Z,23.70
2019-03-03T07:52:11.979Z,35.30
2019-03-03T07:54:47.010Z,15.43
2019-03-03T07:57:22.635Z,17.10
2019-03-03T07:59:57.684Z,12.23
2019-03-03T08:02:32.798Z,17.07
2019-03-03T08:05:09.393Z,22.53
2019-03-03T08:07:44.510Z,18.93
2019-03-03T08:10:20.629Z,12.57
2019-03-03T08:12:55.664Z,12.87
2019-03-03T08:15:31.044Z,12.03
2019-03-03T08:18:06.670Z,14.40
2019-03-03T08:20:43.673Z,17.03
2019-03-03T08:23:19.626Z,20.80
2019-03-03T08:25:54.970Z,13.80
2019-03-03T08:28:30.018Z,18.63
2019-03-03T08:31:05.154Z,15.57
2019-03-03T08:33:40.283Z,19.50
2019-03-03T08:36:15.318Z,15.40
2019-03-03T08:38:59.286Z,14.80
2019-03-03T08:41:56.025Z,18.47
2019-03-03T08:44:39.179Z,21.87
2019-03-03T08:47:35.986Z,17.97
2019-03-03T08:50:15.243Z,16.37
2019-03-03T08:53:09.514Z,21.40
2019-03-03T08:56:03.855Z,12.13
2019-03-03T08:58:41.200Z,17.07
2019-03-03T09:01:18.780Z,36.03
2019-03-03T09:03:58.723Z,16.13
2019-03-03T09:06:38.542Z,15.17
2019-03-03T09:09:32.429Z,10.53
2019-03-03T09:12:30.223Z,14.30
2019-03-03T09:15:27.786Z,27.03
2019-03-03T09:18:08.790Z,23.43
2019-03-03T09:20:45.890Z,21.90
2019-03-03T09:23:26.030Z,26.00
2019-03-03T09:26:16.096Z,18.30
2019-03-03T09:28:53.083Z,21.83
2019-03-03T09:31:36.493Z,21.60
2019-03-03T09:34:19.341Z,17.83
2019-03-03T09:36:56.039Z,21.20
2019-03-03T09:39:32.706Z,28.27
2019-03-03T09:42:19.682Z,24.67
2019-03-03T09:44:56.679Z,20.67
2019-03-03T09:47:33.376Z,30.93
2019-03-03T09:50:19.127Z,19.33
2019-03-03T09:53:15.510Z,21.27
2019-03-03T09:55:55.029Z,21.57
2019-03-03T09:58:50.435Z,16.37
2019-03-03T10:01:45.128Z,20.60
2019-03-03T10:04:40.373Z,23.47
2019-03-03T10:07:17.179Z,15.00
2019-03-03T10:09:59.879Z,23.73
2019-03-03T10:12:54.508Z,27.77
2019-03-03T10:15:34.863Z,18.77
2019-03-03T10:18:14.518Z,21.07
2019-03-03T10:21:03.106Z,20.83
2019-03-03T10:23:45.688Z,27.50
2019-03-03T10:26:29.432Z,23.00
2019-03-03T10:29:24.019Z,22.07
2019-03-03T10:32:15.107Z,21.57
2019-03-03T10:34:54.950Z,23.30
2019-03-03T10:37:42.361Z,26.50
2019-03-03T10:40:19.898Z,20.00
2019-03-03T10:42:56.834Z,24.60
2019-03-03T10:45:36.366Z,21.40
2019-03-03T10:48:29.599Z,16.57
2019-03-03T10:51:09.007Z,23.17
2019-03-03T10:53:46.026Z,32.57
2019-03-03T10:56:29.930Z,18.10
2019-03-03T10:59:09.479Z,33.63
2019-03-03T11:01:46.420Z,17.63
2019-03-03T11:04:25.873Z,21.20
2019-03-03T11:07:04.160Z,15.83
2019-03-03T11:10:00.693Z,19.87
2019-03-03T11:12:43.785Z,21.20
2019-03-03T11:15:38.357Z,21.43
2019-03-03T11:18:33.005Z,11.27
2019-03-03T11:21:27.908Z,20.97
2019-03-03T11:24:10.787Z,25.43
2019-03-03T11:27:00.097Z,17.47
2019-03-03T11:29:50.147Z,21.50
2019-03-03T11:32:26.889Z,22.90
2019-03-03T11:35:21.502Z,20.57
2019-03-03T11:37:58.311Z,19.97
2019-03-03T11:40:35.309Z,29.33
2019-03-03T11:43:25.158Z,32.33
2019-03-03T11:46:19.479Z,25.77
2019-03-03T11:48:56.970Z,16.57
2019-03-03T11:51:51.207Z,12.40
2019-03-03T11:54:31.990Z,40.60
2019-03-03T11:57:18.287Z,28.73
2019-03-03T11:59:55.065Z,19.87
2019-03-03T12:02:38.724Z,14.23
2019-03-03T12:05:31.781Z,25.77
2019-03-03T12:08:11.307Z,27.83
2019-03-03T12:10:48.014Z,18.17
2019-03-03T12:13:25.159Z,17.03
2019-03-03T12:16:12.081Z,20.13
2019-03-03T12:19:03.601Z,25.00
2019-03-03T12:21:43.429Z,19.97
2019-03-03T12:24:35.094Z,31.90
2019-03-03T12:27:28.110Z,25.53
2019-03-03T12:30:04.803Z,37.20
2019-03-03T12:32:41.702Z,23.10
2019-03-03T12:35:18.495Z,30.43
2019-03-03T12:37:58.288Z,21.63
2019-03-03T12:40:35.283Z,47.63
2019-03-03T12:43:22.490Z,25.83
2019-03-03T12:46:10.010Z,21.17
2019-03-03T12:48:47.647Z,19.20
2019-03-03T12:51:30.818Z,41.87
2019-03-03T12:54:14.867Z,51.73
2019-03-03T12:56:51.887Z,26.23
2019-03-03T12:59:31.396Z,33.63
2019-03-03T13:02:24.577Z,22.83
2019-03-03T13:05:06.354Z,35.23
2019-03-03T13:08:00.413Z,22.77
2019-03-03T13:10:40.545Z,33.20
2019-03-03T13:13:17.587Z,33.67
2019-03-03T13:16:07.719Z,27.03
2019-03-03T13:18:50.526Z,35.13
2019-03-03T13:21:40.122Z,21.03
2019-03-03T13:24:17.884Z,25.07
2019-03-03T13:26:54.678Z,29.20
2019-03-03T13:29:48.920Z,26.63
2019-03-03T13:32:29.307Z,24.37
2019-03-03T13:35:18.142Z,33.17
2019-03-03T13:38:01.116Z,38.73
2019-03-03T13:40:37.819Z,31.80
2019-03-03T13:43:13.886Z,35.77
2019-03-03T13:45:48.999Z,46.07
2019-03-03T13:48:24.050Z,22.53
2019-03-03T13:50:59.155Z,42.97
2019-03-03T13:53:34.518Z,26.77
2019-03-03T13:56:10.107Z,23.83
2019-03-03T13:58:45.223Z,26.27
2019-03-03T14:01:20.428Z,38.43
2019-03-03T14:03:56.167Z,29.37
2019-03-03T14:06:31.189Z,21.37
2019-03-03T14:09:07.882Z,19.23
2019-03-03T14:11:44.077Z,27.50
2019-03-03T14:14:19.699Z,23.80
2019-03-03T14:16:54.730Z,20.37
2019-03-03T14:19:30.245Z,19.27
2019-03-03T14:22:05.415Z,14.57
2019-03-03T14:24:40.451Z,18.30
2019-03-03T14:27:16.165Z,20.57
2019-03-03T14:29:51.414Z,25.33
2019-03-03T14:32:26.539Z,20.80
2019-03-03T14:35:01.875Z,22.77
2019-03-03T14:37:38.131Z,20.30
2019-03-03T14:40:18.292Z,32.57
2019-03-03T14:42:53.312Z,25.43
2019-03-03T14:45:28.704Z,21.53
2019-03-03T14:48:03.720Z,20.77
2019-03-03T14:50:39.998Z,21.43
2019-03-03T14:53:15.386Z,23.33
2019-03-03T14:55:50.444Z,32.20
2019-03-03T14:58:25.754Z,22.80
2019-03-03T15:01:00.808Z,26.03
2019-03-03T15:03:35.962Z,20.00
2019-03-03T15:06:12.977Z,38.70
2019-03-03T15:08:48.316Z,21.53
2019-03-03T15:11:23.377Z,26.43
2019-03-03T15:13:58.423Z,22.73
2019-03-03T15:16:33.471Z,23.63
2019-03-03T15:19:08.628Z,27.50
2019-03-03T15:21:46.238Z,38.00
2019-03-03T15:24:21.412Z,48.13
2019-03-03T15:26:57.842Z,53.90
2019-03-03T15:29:33.218Z,24.97
2019-03-03T15:32:08.267Z,25.93
2019-03-03T15:34:43.313Z,26.57
2019-03-03T15:37:18.905Z,27.77
2019-03-03T15:39:54.073Z,24.20
2019-03-03T15:42:29.129Z,28.83
2019-03-03T15:45:07.393Z,22.77
2019-03-03T15:47:42.452Z,20.97
2019-03-03T15:50:19.049Z,25.97
2019-03-03T15:52:54.754Z,23.47
2019-03-03T15:55:31.947Z,27.43
2019-03-03T15:58:08.102Z,24.70
2019-03-03T16:00:43.307Z,22.60
2019-03-03T16:03:18.403Z,26.67
2019-03-03T16:05:54.253Z,30.03
2019-03-03T16:08:29.673Z,19.97
2019-03-03T16:11:04.722Z,43.47
2019-03-03T16:13:41.084Z,30.33
2019-03-03T16:16:16.520Z,26.80
2019-03-03T16:18:52.202Z,29.70
2019-03-03T16:21:27.460Z,28.00
2019-03-03T16:24:02.500Z,24.37
2019-03-03T16:26:37.549Z,29.83
2019-03-03T16:29:12.647Z,31.27
2019-03-03T16:31:47.763Z,33.10
2019-03-03T16:34:22.790Z,27.97
2019-03-03T16:36:58.238Z,28.00
2019-03-03T16:39:33.263Z,28.60
2019-03-03T16:42:08.631Z,26.20
2019-03-03T16:44:43.658Z,27.03
2019-03-03T16:47:19.683Z,43.43
2019-03-03T16:49:54.996Z,32.00
2019-03-03T16:52:30.071Z,40.70
2019-03-03T16:55:08.242Z,30.93
2019-03-03T16:57:44.684Z,20.73
2019-03-03T17:00:25.008Z,34.53
2019-03-03T17:03:00.109Z,49.03
2019-03-03T17:05:35.226Z,29.80
2019-03-03T17:08:10.645Z,40.20
2019-03-03T17:10:45.675Z,25.13
2019-03-03T17:13:21.767Z,38.00
2019-03-03T17:15:58.781Z,30.47
2019-03-03T17:18:34.036Z,33.37
2019-03-03T17:21:10.388Z,23.17
2019-03-03T17:23:45.786Z,18.83
2019-03-03T17:26:21.251Z,40.77
2019-03-03T17:28:56.356Z,27.77
2019-03-03T17:31:31.468Z,25.60
2019-03-03T17:34:13.124Z,29.60
2019-03-03T17:36:43.702Z,31.20
2019-03-03T17:39:19.260Z,32.07
2019-03-03T17:41:54.342Z,21.77
2019-03-03T17:44:29.368Z,21.10
2019-03-03T17:47:04.391Z,31.90
2019-03-03T17:49:39.435Z,24.63
2019-03-03T17:52:14.759Z,26.83
2019-03-03T17:54:50.180Z,25.50
2019-03-03T17:57:25.274Z,26.33
2019-03-03T18:00:01.003Z,30.47
2019-03-03T18:02:37.753Z,35.70
2019-03-03T18:05:12.865Z,25.77
2019-03-03T18:07:48.633Z,29.57
2019-03-03T18:10:23.774Z,32.70
2019-03-03T18:12:59.257Z,24.57
2019-03-03T18:15:34.389Z,38.13
2019-03-03T18:18:09.820Z,33.27
2019-03-03T18:20:45.173Z,22.67
2019-03-03T18:23:21.739Z,25.67
2019-03-03T18:25:56.820Z,19.53
2019-03-03T18:28:32.198Z,22.83
2019-03-03T18:31:07.638Z,34.97
2019-03-03T18:33:43.291Z,27.07
2019-03-03T18:36:19.570Z,20.60
2019-03-03T18:38:54.942Z,30.97
2019-03-03T18:41:30.473Z,29.17
2019-03-03T18:44:05.814Z,47.77
2019-03-03T18:46:41.738Z,30.90
2019-03-03T18:49:17.034Z,34.80
2019-03-03T18:51:52.149Z,27.53
2019-03-03T18:54:29.343Z,22.30
2019-03-03T18:57:04.873Z,28.53
2019-03-03T18:59:40.350Z,29.37
2019-03-03T19:02:17.103Z,29.87
2019-03-03T19:04:52.237Z,28.90
2019-03-03T19:07:27.363Z,23.80
2019-03-03T19:10:02.468Z,23.87
2019-03-03T19:12:39.485Z,26.53
2019-03-03T19:15:20.678Z,28.77
2019-03-03T19:17:55.727Z,45.87
2019-03-03T19:20:31.171Z,34.67
2019-03-03T19:23:06.269Z,19.90
2019-03-03T19:25:41.694Z,22.93
2019-03-03T19:28:16.741Z,23.43
2019-03-03T19:30:52.814Z,19.53
2019-03-03T19:33:40.534Z,24.53
2019-03-03T19:36:16.011Z,19.83
2019-03-03T19:38:51.303Z,24.80
2019-03-03T19:41:26.733Z,24.63
2019-03-03T19:44:01.934Z,19.17
2019-03-03T19:46:37.535Z,19.63
2019-03-03T19:49:12.715Z,19.97
2019-03-03T19:51:48.228Z,23.33
2019-03-03T19:54:23.870Z,27.33
2019-03-03T19:56:59.897Z,16.73
2019-03-03T19:59:35.511Z,22.70
2019-03-03T20:02:11.254Z,22.83
2019-03-03T20:04:46.480Z,23.10
2019-03-03T20:07:21.752Z,29.57
2019-03-03T20:09:57.976Z,29.90
2019-03-03T20:12:33.494Z,22.83
2019-03-03T20:15:11.067Z,23.67
2019-03-03T20:17:47.400Z,18.97
2019-03-03T20:20:23.046Z,47.53
2019-03-03T20:22:59.544Z,17.27
2019-03-03T20:25:34.662Z,26.50
2019-03-03T20:28:10.213Z,25.50
2019-03-03T20:30:46.410Z,21.40
2019-03-03T20:33:22.755Z,17.70
2019-03-03T20:35:58.330Z,27.10
2019-03-03T20:38:33.461Z,25.37
2019-03-03T20:41:08.607Z,29.37
2019-03-03T20:43:43.785Z,22.83
2019-03-03T20:46:20.148Z,25.57
2019-03-03T20:48:55.657Z,29.47
2019-03-03T20:51:33.145Z,23.20
2019-03-03T20:54:09.694Z,22.73
2019-03-03T20:56:44.743Z,22.40
2019-03-03T20:59:19.892Z,20.50
2019-03-03T21:01:55.017Z,20.47
2019-03-03T21:04:30.130Z,19.47
2019-03-03T21:07:05.600Z,24.70
2019-03-03T21:09:42.160Z,21.63
2019-03-03T21:12:18.511Z,18.47
2019-03-03T21:14:54.403Z,23.87
2019-03-03T21:17:29.731Z,15.00
2019-03-03T21:20:08.246Z,41.73
2019-03-03T21:22:43.374Z,16.13
2019-03-03T21:25:19.624Z,21.20
2019-03-03T21:27:55.568Z,21.03
2019-03-03T21:30:31.848Z,24.20
2019-03-03T21:33:07.134Z,16.73
2019-03-03T21:35:42.536Z,15.83
2019-03-03T21:38:17.576Z,17.03
2019-03-03T21:40:57.112Z,25.77
2019-03-03T21:43:32.165Z,36.90
2019-03-03T21:46:07.763Z,33.33
2019-03-03T21:48:42.800Z,20.97
2019-03-03T21:51:18.111Z,35.47
2019-03-03T21:53:53.177Z,13.50
2019-03-03T21:56:28.287Z,21.03
2019-03-03T21:59:03.458Z,22.57
2019-03-03T22:01:38.770Z,21.93
2019-03-03T22:04:13.919Z,18.07
2019-03-03T22:06:49.089Z,16.37
2019-03-03T22:09:31.913Z,12.47
2019-03-03T22:12:10.240Z,28.17
2019-03-03T22:14:45.372Z,22.53
2019-03-03T22:17:20.488Z,21.77
2019-03-03T22:19:55.913Z,23.33
2019-03-03T22:22:31.239Z,22.17
2019-03-03T22:25:09.369Z,18.63
2019-03-03T22:27:45.278Z,24.47
2019-03-03T22:30:20.738Z,23.20
2019-03-03T22:32:56.044Z,22.20
2019-03-03T22:35:31.141Z,17.37
2019-03-03T22:38:06.250Z,21.77
2019-03-03T22:40:42.076Z,20.20
2019-03-03T22:43:17.521Z,21.27
2019-03-03T22:45:52.862Z,15.00
2019-03-03T22:48:28.542Z,15.93
2019-03-03T22:51:03.865Z,19.20
2019-03-03T22:53:39.028Z,19.57
2019-03-03T22:56:14.442Z,21.80
2019-03-03T22:58:49.985Z,24.57
2019-03-03T23:01:25.866Z,16.30
2019-03-03T23:04:36.306Z,20.00
2019-03-03T23:07:14.782Z,28.77
2019-03-03T23:09:56.606Z,29.97
2019-03-03T23:13:01.343Z,32.27
2019-03-03T23:15:58.083Z,24.07
2019-03-03T23:18:48.637Z,20.13
2019-03-03T23:21:36.799Z,28.20
2019-03-03T23:24:48.832Z,13.53
2019-03-03T23:27:25.126Z,27.30
2019-03-03T23:30:01.464Z,19.07
2019-03-03T23:32:36.643Z,18.40
2019-03-03T23:35:12.163Z,14.80
2019-03-03T23:37:47.517Z,13.63
2019-03-03T23:40:22.945Z,24.80
2019-03-03T23:42:58.489Z,7.60
2019-03-03T23:45:33.590Z,20.07
2019-03-03T23:48:08.724Z,15.37
2019-03-03T23:50:44.092Z,17.30
2019-03-03T23:53:19.766Z,16.73
2019-03-03T23:55:54.789Z,16.50
2019-03-03T23:58:29.833Z,19.77
